createdAt,value
2018-12-10T00:00:35.024Z,6.80
2018-12-10T00:03:08.482Z,6.80
2018-12-10T00:05:36.740Z,6.80
2018-12-10T00:08:04.860Z,6.80
2018-12-10T00:10:41.270Z,6.80
2018-12-10T00:13:03.152Z,6.80
2018-12-10T00:15:31.291Z,6.70
2018-12-10T00:17:59.408Z,6.80
2018-12-10T00:20:27.801Z,6.70
2018-12-10T00:22:55.900Z,6.70
2018-12-10T00:25:24.004Z,6.70
2018-12-10T00:27:52.192Z,6.70
2018-12-10T00:30:20.296Z,6.70
2018-12-10T00:32:48.412Z,6.60
2018-12-10T00:35:16.552Z,6.50
2018-12-10T00:37:44.656Z,6.50
2018-12-10T00:40:12.897Z,6.50
2018-12-10T00:42:40.998Z,6.50
2018-12-10T00:45:09.103Z,6.40
2018-12-10T00:47:37.368Z,6.40
2018-12-10T00:50:05.655Z,6.40
2018-12-10T00:52:33.755Z,6.40
2018-12-10T00:55:01.910Z,6.40
2018-12-10T00:57:30.017Z,6.40
2018-12-10T00:59:58.124Z,6.30
2018-12-10T01:02:26.377Z,6.40
2018-12-10T01:04:54.476Z,6.40
2018-12-10T01:07:22.641Z,6.40
2018-12-10T01:09:50.788Z,6.40
2018-12-10T01:12:18.883Z,6.30
2018-12-10T01:14:46.987Z,6.30
2018-12-10T01:17:15.144Z,6.20
2018-12-10T01:19:43.252Z,6.20
2018-12-10T01:22:11.356Z,6.20
2018-12-10T01:24:39.507Z,6.20
2018-12-10T01:27:07.620Z,6.20
2018-12-10T01:29:35.719Z,6.20
2018-12-10T01:32:04.067Z,6.20
2018-12-10T01:34:32.171Z,6.20
2018-12-10T01:37:00.297Z,6.20
2018-12-10T01:39:28.444Z,6.20
2018-12-10T01:41:56.580Z,6.20
2018-12-10T01:44:24.681Z,6.20
2018-12-10T01:46:53.035Z,6.10
2018-12-10T01:49:21.183Z,6.10
2018-12-10T01:51:49.305Z,6.00
2018-12-10T01:54:17.680Z,6.00
2018-12-10T01:56:45.778Z,6.00
2018-12-10T01:59:13.868Z,5.90
2018-12-10T02:01:42.011Z,5.80
2018-12-10T02:04:10.367Z,5.70
2018-12-10T02:06:38.462Z,5.70
2018-12-10T02:09:06.720Z,5.70
2018-12-10T02:11:34.819Z,5.60
2018-12-10T02:14:02.920Z,5.60
2018-12-10T02:16:31.064Z,5.60
2018-12-10T02:18:59.200Z,5.60
2018-12-10T02:21:27.365Z,5.60
2018-12-10T02:23:55.493Z,5.50
2018-12-10T02:26:23.802Z,5.50
2018-12-10T02:28:57.352Z,5.50
2018-12-10T02:31:25.763Z,5.50
2018-12-10T02:33:53.960Z,5.50
2018-12-10T02:36:22.060Z,5.40
2018-12-10T02:38:50.184Z,5.50
2018-12-10T02:41:18.291Z,5.50
2018-12-10T02:43:46.480Z,5.50
2018-12-10T02:46:14.623Z,5.60
2018-12-10T02:48:42.723Z,5.60
2018-12-10T02:51:10.826Z,5.60
2018-12-10T02:53:38.974Z,5.60
2018-12-10T02:56:07.075Z,5.60
2018-12-10T02:58:35.175Z,5.60
2018-12-10T03:01:03.337Z,5.60
2018-12-10T03:03:31.441Z,5.70
2018-12-10T03:05:59.583Z,5.70
2018-12-10T03:08:27.737Z,5.70
2018-12-10T03:10:55.837Z,5.70
2018-12-10T03:13:23.960Z,5.70
2018-12-10T03:15:52.344Z,5.70
2018-12-10T03:18:20.454Z,5.60
2018-12-10T03:20:48.553Z,5.70
2018-12-10T03:23:16.783Z,5.70
2018-12-10T03:25:44.992Z,5.70
2018-12-10T03:28:13.097Z,5.60
2018-12-10T03:30:41.249Z,5.60
2018-12-10T03:33:09.454Z,5.70
2018-12-10T03:35:37.546Z,5.70
2018-12-10T03:38:05.804Z,5.70
2018-12-10T03:40:34.005Z,5.60
2018-12-10T03:43:02.154Z,5.70
2018-12-10T03:45:30.256Z,5.60
2018-12-10T03:47:58.419Z,5.60
2018-12-10T03:50:26.660Z,5.60
2018-12-10T03:52:54.768Z,5.50
2018-12-10T03:55:22.878Z,5.60
2018-12-10T03:57:51.029Z,5.60
2018-12-10T04:00:19.165Z,5.50
2018-12-10T04:02:47.269Z,5.50
2018-12-10T04:05:15.441Z,5.50
2018-12-10T04:07:43.604Z,5.60
2018-12-10T04:10:11.703Z,5.60
2018-12-10T04:12:39.817Z,5.70
2018-12-10T04:15:08.073Z,5.60
2018-12-10T04:17:36.172Z,5.50
2018-12-10T04:20:04.362Z,5.60
2018-12-10T04:22:32.612Z,5.60
2018-12-10T04:25:00.710Z,5.70
2018-12-10T04:27:28.811Z,5.60
2018-12-10T04:29:57.053Z,5.60
2018-12-10T04:32:25.146Z,5.60
2018-12-10T04:34:53.234Z,5.60
2018-12-10T04:37:21.386Z,5.60
2018-12-10T04:39:49.531Z,5.50
2018-12-10T04:42:17.719Z,5.50
2018-12-10T04:44:46.111Z,5.40
2018-12-10T04:47:14.208Z,5.40
2018-12-10T04:49:42.316Z,5.40
2018-12-10T04:52:10.472Z,5.40
2018-12-10T04:54:38.572Z,5.40
2018-12-10T04:57:06.679Z,5.40
2018-12-10T04:59:35.015Z,5.50
2018-12-10T05:02:03.124Z,5.50
2018-12-10T05:04:31.371Z,5.50
2018-12-10T05:06:59.745Z,5.60
2018-12-10T05:09:27.848Z,5.50
2018-12-10T05:11:55.998Z,5.50
2018-12-10T05:14:24.372Z,5.50
2018-12-10T05:16:52.563Z,5.50
2018-12-10T05:19:20.660Z,5.50
2018-12-10T05:21:48.817Z,5.40
2018-12-10T05:24:16.917Z,5.50
2018-12-10T05:26:45.016Z,5.50
2018-12-10T05:29:13.172Z,5.50
2018-12-10T05:31:41.392Z,5.50
2018-12-10T05:34:11.278Z,5.50
2018-12-10T05:36:39.763Z,5.50
2018-12-10T05:39:07.868Z,5.50
2018-12-10T05:41:35.964Z,5.50
2018-12-10T05:44:04.126Z,5.50
2018-12-10T05:46:32.332Z,5.50
2018-12-10T05:49:00.444Z,5.40
2018-12-10T05:51:28.592Z,5.50
2018-12-10T05:53:56.689Z,5.40
2018-12-10T05:56:24.788Z,5.40
2018-12-10T05:58:53.161Z,5.50
2018-12-10T06:01:21.383Z,5.40
2018-12-10T06:03:49.479Z,5.40
2018-12-10T06:06:17.629Z,5.40
2018-12-10T06:08:45.836Z,5.50
2018-12-10T06:11:13.939Z,5.50
2018-12-10T06:13:42.090Z,5.50
2018-12-10T06:16:10.196Z,5.40
2018-12-10T06:18:38.292Z,5.50
2018-12-10T06:21:06.532Z,5.50
2018-12-10T06:23:34.641Z,5.40
2018-12-10T06:26:02.748Z,5.50
2018-12-10T06:28:30.883Z,5.40
2018-12-10T06:30:59.040Z,5.50
2018-12-10T06:33:27.150Z,5.40
2018-12-10T06:35:55.393Z,5.50
2018-12-10T06:38:23.447Z,5.50
2018-12-10T06:40:51.548Z,5.40
2018-12-10T06:43:19.935Z,5.30
2018-12-10T06:45:48.028Z,5.30
2018-12-10T06:48:16.132Z,5.20
2018-12-10T06:50:44.272Z,5.20
2018-12-10T06:53:12.368Z,5.20
2018-12-10T06:55:40.476Z,5.20
2018-12-10T06:58:08.808Z,5.30
2018-12-10T07:00:36.961Z,5.20
2018-12-10T07:03:05.111Z,5.30
2018-12-10T07:05:33.255Z,5.30
2018-12-10T07:08:01.365Z,5.40
2018-12-10T07:10:29.459Z,5.40
2018-12-10T07:12:57.608Z,5.40
2018-12-10T07:15:25.702Z,5.40
2018-12-10T07:17:53.800Z,5.40
2018-12-10T07:20:21.960Z,5.40
2018-12-10T07:22:50.060Z,5.40
2018-12-10T07:25:18.163Z,5.40
2018-12-10T07:27:46.303Z,5.40
2018-12-10T07:30:14.400Z,5.40
2018-12-10T07:32:42.532Z,5.40
2018-12-10T07:35:10.625Z,5.40
2018-12-10T07:37:38.721Z,5.40
2018-12-10T07:40:07.002Z,5.40
2018-12-10T07:42:35.198Z,5.40
2018-12-10T07:45:03.313Z,5.40
2018-12-10T07:47:31.464Z,5.40
2018-12-10T07:49:59.567Z,5.50
2018-12-10T07:52:27.823Z,5.40
2018-12-10T07:54:55.925Z,5.50
2018-12-10T07:57:24.029Z,5.50
2018-12-10T07:59:52.166Z,5.40
2018-12-10T08:02:20.321Z,5.40
2018-12-10T08:04:48.513Z,5.50
2018-12-10T08:07:16.624Z,5.30
2018-12-10T08:09:44.795Z,5.40
2018-12-10T08:12:12.896Z,5.30
2018-12-10T08:14:40.997Z,5.40
2018-12-10T08:17:09.136Z,5.30
2018-12-10T08:19:37.236Z,5.40
2018-12-10T08:22:05.349Z,5.50
2018-12-10T08:24:33.525Z,5.50
2018-12-10T08:27:01.627Z,5.40
2018-12-10T08:29:29.729Z,5.40
2018-12-10T08:31:58.112Z,5.20
2018-12-10T08:34:26.371Z,5.30
2018-12-10T08:36:55.667Z,5.30
2018-12-10T08:39:23.936Z,5.30
2018-12-10T08:41:52.039Z,5.30
2018-12-10T08:44:20.140Z,5.20
2018-12-10T08:46:48.299Z,5.30
2018-12-10T08:49:16.399Z,5.40
2018-12-10T08:51:44.502Z,5.40
2018-12-10T08:54:12.848Z,5.50
2018-12-10T08:56:41.046Z,5.60
2018-12-10T08:59:09.200Z,5.50
2018-12-10T09:01:37.335Z,5.60
2018-12-10T09:04:05.477Z,5.60
2018-12-10T09:06:33.735Z,5.60
2018-12-10T09:09:02.295Z,5.60
2018-12-10T09:11:30.401Z,5.40
2018-12-10T09:13:58.511Z,5.40
2018-12-10T09:16:26.640Z,5.50
2018-12-10T09:18:54.751Z,5.50
2018-12-10T09:21:22.992Z,5.50
2018-12-10T09:23:51.109Z,5.40
2018-12-10T09:26:19.220Z,5.50
2018-12-10T09:28:47.465Z,5.60
2018-12-10T09:31:15.560Z,5.80
2018-12-10T09:33:43.668Z,5.80
2018-12-10T09:36:11.820Z,5.70
2018-12-10T09:38:39.930Z,5.60
2018-12-10T09:41:08.032Z,5.50
2018-12-10T09:43:36.182Z,5.50
2018-12-10T09:46:04.336Z,5.60
2018-12-10T09:48:32.445Z,5.60
2018-12-10T09:51:00.547Z,5.50
2018-12-10T09:53:28.933Z,5.50
2018-12-10T09:55:57.040Z,5.50
2018-12-10T09:58:25.140Z,5.50
2018-12-10T10:00:53.299Z,5.50
2018-12-10T10:03:21.396Z,5.50
2018-12-10T10:05:49.656Z,5.60
2018-12-10T10:08:17.752Z,5.40
2018-12-10T10:10:45.857Z,5.50
2018-12-10T10:13:14.105Z,5.60
2018-12-10T10:15:42.204Z,5.60
2018-12-10T10:18:10.316Z,5.60
2018-12-10T10:20:38.592Z,5.60
2018-12-10T10:23:06.771Z,5.50
2018-12-10T10:25:34.882Z,5.60
2018-12-10T10:28:03.041Z,5.60
2018-12-10T10:30:31.200Z,5.60
2018-12-10T10:32:59.304Z,5.60
2018-12-10T10:35:27.404Z,5.60
2018-12-10T10:37:55.569Z,5.60
2018-12-10T10:40:23.669Z,5.60
2018-12-10T10:42:51.767Z,5.60
2018-12-10T10:45:20.008Z,5.70
2018-12-10T10:47:48.110Z,5.70
2018-12-10T10:50:16.204Z,5.80
2018-12-10T10:52:44.360Z,5.90
2018-12-10T10:55:12.476Z,6.00
2018-12-10T10:57:40.580Z,5.80
2018-12-10T11:00:15.513Z,5.80
2018-12-10T11:02:48.031Z,5.70
2018-12-10T11:05:16.231Z,5.70
2018-12-10T11:07:44.711Z,5.70
2018-12-10T11:10:12.822Z,5.60
2018-12-10T11:12:40.967Z,5.70
2018-12-10T11:15:09.277Z,5.70
2018-12-10T11:17:37.384Z,5.60
2018-12-10T11:20:05.964Z,5.70
2018-12-10T11:22:34.069Z,5.60
2018-12-10T11:25:02.168Z,5.70
2018-12-10T11:27:30.317Z,5.70
2018-12-10T11:29:58.439Z,5.80
2018-12-10T11:32:26.548Z,5.90
2018-12-10T11:34:54.961Z,5.90
2018-12-10T11:37:23.068Z,5.90
2018-12-10T11:39:51.172Z,5.90
2018-12-10T11:42:19.336Z,5.90
2018-12-10T11:44:47.443Z,5.90
2018-12-10T11:47:15.548Z,5.90
2018-12-10T11:49:43.891Z,5.90
2018-12-10T11:52:12.004Z,5.90
2018-12-10T11:54:40.105Z,5.90
2018-12-10T11:57:08.263Z,5.90
2018-12-10T11:59:36.364Z,5.90
2018-12-10T12:02:04.465Z,5.90
2018-12-10T12:04:32.620Z,5.90
2018-12-10T12:07:00.728Z,5.90
2018-12-10T12:09:29.704Z,5.90
2018-12-10T12:11:57.853Z,5.90
2018-12-10T12:14:25.980Z,5.80
2018-12-10T12:16:54.211Z,5.80
2018-12-10T12:19:22.305Z,5.80
2018-12-10T12:21:50.408Z,6.00
2018-12-10T12:24:18.609Z,5.90
2018-12-10T12:26:46.716Z,6.00
2018-12-10T12:29:14.826Z,5.90
2018-12-10T12:31:42.983Z,5.80
2018-12-10T12:34:17.605Z,5.80
2018-12-10T12:36:45.750Z,5.80
2018-12-10T12:39:13.909Z,5.80
2018-12-10T12:41:42.019Z,6.00
2018-12-10T12:44:10.135Z,5.90
2018-12-10T12:46:38.285Z,5.80
2018-12-10T12:49:06.419Z,5.80
2018-12-10T12:51:34.517Z,5.80
2018-12-10T12:54:02.895Z,5.80
2018-12-10T12:56:31.000Z,5.70
2018-12-10T12:58:59.104Z,5.60
2018-12-10T13:01:27.363Z,5.40
2018-12-10T13:03:55.461Z,5.40
2018-12-10T13:06:23.560Z,5.40
2018-12-10T13:08:51.712Z,5.40
2018-12-10T13:11:19.921Z,5.40
2018-12-10T13:13:48.016Z,5.50
2018-12-10T13:16:16.171Z,5.50
2018-12-10T13:18:44.284Z,5.60
2018-12-10T13:21:12.390Z,5.70
2018-12-10T13:23:40.548Z,5.70
2018-12-10T13:26:08.652Z,5.70
2018-12-10T13:28:36.752Z,5.70
2018-12-10T13:31:04.928Z,5.70
2018-12-10T13:33:33.040Z,5.70
2018-12-10T13:36:01.152Z,5.60
2018-12-10T13:38:29.299Z,5.60
2018-12-10T13:40:57.407Z,5.50
2018-12-10T13:43:25.563Z,5.60
2018-12-10T13:45:53.776Z,5.60
2018-12-10T13:48:21.927Z,5.50
2018-12-10T13:50:50.080Z,5.50
2018-12-10T13:53:18.212Z,5.60
2018-12-10T13:55:46.316Z,5.50
2018-12-10T13:58:14.565Z,5.40
2018-12-10T14:00:42.695Z,5.40
2018-12-10T14:03:10.841Z,5.50
2018-12-10T14:05:39.032Z,5.50
2018-12-10T14:08:07.129Z,5.60
2018-12-10T14:10:35.232Z,5.50
2018-12-10T14:13:03.372Z,5.40
2018-12-10T14:15:31.477Z,5.30
2018-12-10T14:17:59.624Z,5.20
2018-12-10T14:20:27.724Z,5.10
2018-12-10T14:22:55.823Z,5.00
2018-12-10T14:25:26.362Z,5.00
2018-12-10T14:27:54.507Z,5.00
2018-12-10T14:30:22.700Z,5.00
2018-12-10T14:32:50.931Z,5.00
2018-12-10T14:35:19.028Z,5.00
2018-12-10T14:37:47.123Z,5.00
2018-12-10T14:40:15.266Z,5.10
2018-12-10T14:42:50.951Z,5.10
2018-12-10T14:45:19.231Z,5.00
2018-12-10T14:47:51.519Z,5.10
2018-12-10T14:50:19.884Z,5.10
2018-12-10T14:52:48.015Z,5.10
2018-12-10T14:55:16.137Z,5.10
2018-12-10T14:57:44.279Z,5.20
2018-12-10T15:00:12.771Z,5.10
2018-12-10T15:02:40.872Z,5.30
2018-12-10T15:05:10.131Z,5.20
2018-12-10T15:07:38.464Z,5.30
2018-12-10T15:10:10.408Z,5.30
2018-12-10T15:12:38.763Z,5.30
2018-12-10T15:15:08.491Z,5.30
2018-12-10T15:17:36.617Z,5.30
2018-12-10T15:20:09.749Z,5.30
2018-12-10T15:22:37.853Z,5.30
2018-12-10T15:25:06.752Z,5.30
2018-12-10T15:27:35.223Z,5.10
2018-12-10T15:30:03.936Z,5.10
2018-12-10T15:32:32.035Z,5.10
2018-12-10T15:35:00.220Z,5.10
2018-12-10T15:37:28.297Z,5.00
2018-12-10T15:39:56.356Z,4.90
2018-12-10T15:42:24.552Z,4.90
2018-12-10T15:44:52.660Z,4.90
2018-12-10T15:47:20.823Z,4.90
2018-12-10T15:49:49.207Z,4.90
2018-12-10T15:52:17.323Z,4.70
2018-12-10T15:54:45.452Z,4.50
2018-12-10T15:57:13.872Z,4.30
2018-12-10T15:59:41.986Z,4.30
2018-12-10T16:02:10.100Z,4.40
2018-12-10T16:04:38.261Z,4.40
2018-12-10T16:07:06.372Z,4.40
2018-12-10T16:09:34.477Z,4.40
2018-12-10T16:12:02.874Z,4.40
2018-12-10T16:14:31.095Z,4.50
2018-12-10T16:16:59.196Z,4.50
2018-12-10T16:19:29.799Z,4.50
2018-12-10T16:21:57.906Z,4.50
2018-12-10T16:24:26.007Z,4.50
2018-12-10T16:26:54.224Z,4.40
2018-12-10T16:29:22.387Z,4.50
2018-12-10T16:31:50.496Z,4.50
2018-12-10T16:34:18.656Z,4.50
2018-12-10T16:36:46.765Z,4.50
2018-12-10T16:39:14.878Z,4.60
2018-12-10T16:41:43.016Z,4.60
2018-12-10T16:44:11.115Z,4.60
2018-12-10T16:46:39.212Z,4.70
2018-12-10T16:49:07.476Z,4.70
2018-12-10T16:51:36.009Z,4.80
2018-12-10T16:54:04.315Z,4.80
2018-12-10T16:56:32.612Z,4.90
2018-12-10T16:59:00.721Z,4.90
2018-12-10T17:01:29.039Z,4.90
2018-12-10T17:03:58.432Z,4.90
2018-12-10T17:06:26.536Z,4.90
2018-12-10T17:08:54.671Z,4.90
2018-12-10T17:11:22.828Z,4.90
2018-12-10T17:13:51.472Z,5.00
2018-12-10T17:16:19.580Z,5.00
2018-12-10T17:18:47.729Z,4.90
2018-12-10T17:21:15.853Z,4.90
2018-12-10T17:23:44.168Z,5.00
2018-12-10T17:26:12.296Z,5.00
2018-12-10T17:28:40.408Z,5.00
2018-12-10T17:31:08.564Z,5.00
2018-12-10T17:33:36.721Z,5.00
2018-12-10T17:36:04.828Z,4.90
2018-12-10T17:38:33.008Z,4.90
2018-12-10T17:41:06.500Z,4.90
2018-12-10T17:43:31.203Z,5.00
2018-12-10T17:45:59.479Z,5.00
2018-12-10T17:48:27.648Z,5.00
2018-12-10T17:50:55.779Z,4.80
2018-12-10T17:53:23.880Z,4.70
2018-12-10T17:55:52.140Z,4.60
2018-12-10T17:58:20.239Z,4.60
2018-12-10T18:00:48.780Z,4.60
2018-12-10T18:03:17.019Z,4.60
2018-12-10T18:05:45.175Z,4.60
2018-12-10T18:08:13.281Z,4.50
2018-12-10T18:10:41.475Z,4.60
2018-12-10T18:13:09.641Z,4.50
2018-12-10T18:15:37.763Z,4.50
2018-12-10T18:18:05.987Z,4.60
2018-12-10T18:20:34.095Z,4.60
2018-12-10T18:23:02.233Z,4.70
2018-12-10T18:25:30.332Z,4.70
2018-12-10T18:27:58.936Z,4.70
2018-12-10T18:30:27.068Z,4.70
2018-12-10T18:32:55.227Z,4.60
2018-12-10T18:35:23.364Z,4.70
2018-12-10T18:37:51.480Z,4.70
2018-12-10T18:40:19.724Z,4.70
2018-12-10T18:42:47.941Z,4.60
2018-12-10T18:45:17.480Z,4.60
2018-12-10T18:47:45.827Z,4.60
2018-12-10T18:50:13.932Z,4.60
2018-12-10T18:52:42.077Z,4.70
2018-12-10T18:55:10.233Z,4.70
2018-12-10T18:57:38.432Z,4.70
2018-12-10T19:00:10.054Z,4.80
2018-12-10T19:02:38.355Z,4.70
2018-12-10T19:05:06.575Z,4.60
2018-12-10T19:07:34.737Z,4.50
2018-12-10T19:10:02.995Z,4.50
2018-12-10T19:12:31.391Z,4.50
2018-12-10T19:14:59.697Z,4.50
2018-12-10T19:17:27.800Z,4.50
2018-12-10T19:19:55.913Z,4.50
2018-12-10T19:22:24.361Z,4.60
2018-12-10T19:24:52.548Z,4.50
2018-12-10T19:27:20.719Z,4.50
2018-12-10T19:29:48.871Z,4.50
2018-12-10T19:32:17.053Z,4.40
2018-12-10T19:34:45.164Z,4.30
2018-12-10T19:37:13.353Z,4.20
2018-12-10T19:39:41.413Z,4.10
2018-12-10T19:42:09.519Z,4.10
2018-12-10T19:44:37.682Z,4.00
2018-12-10T19:47:05.835Z,3.90
2018-12-10T19:49:34.024Z,4.00
2018-12-10T19:52:02.314Z,3.90
2018-12-10T19:54:31.300Z,3.90
2018-12-10T19:56:59.395Z,4.00
2018-12-10T19:59:27.535Z,4.10
2018-12-10T20:01:55.628Z,4.10
2018-12-10T20:04:23.734Z,4.10
2018-12-10T20:06:57.188Z,4.10
2018-12-10T20:09:25.304Z,4.20
2018-12-10T20:11:53.400Z,4.20
2018-12-10T20:14:21.631Z,4.30
2018-12-10T20:16:49.736Z,4.30
2018-12-10T20:19:17.889Z,4.30
2018-12-10T20:21:45.989Z,4.30
2018-12-10T20:24:14.085Z,4.30
2018-12-10T20:26:42.328Z,4.30
2018-12-10T20:29:10.448Z,4.30
2018-12-10T20:31:38.584Z,4.20
2018-12-10T20:34:06.980Z,4.20
2018-12-10T20:36:35.112Z,4.20
2018-12-10T20:39:05.216Z,4.20
2018-12-10T20:41:33.364Z,4.20
2018-12-10T20:44:01.477Z,4.20
2018-12-10T20:46:29.623Z,4.20
2018-12-10T20:48:58.017Z,4.10
2018-12-10T20:51:27.151Z,4.00
2018-12-10T20:53:55.327Z,4.10
2018-12-10T20:56:23.511Z,4.10
2018-12-10T20:58:51.791Z,4.10
2018-12-10T21:01:20.036Z,4.10
2018-12-10T21:03:48.322Z,4.10
2018-12-10T21:06:21.945Z,4.20
2018-12-10T21:08:50.240Z,4.10
2018-12-10T21:11:18.452Z,4.10
2018-12-10T21:13:46.724Z,4.10
2018-12-10T21:16:14.981Z,4.20
2018-12-10T21:18:43.110Z,4.30
2018-12-10T21:21:11.317Z,4.20
2018-12-10T21:23:39.744Z,4.30
2018-12-10T21:26:07.964Z,4.30
2018-12-10T21:28:36.223Z,4.30
2018-12-10T21:31:04.575Z,4.30
2018-12-10T21:33:33.789Z,4.40
2018-12-10T21:36:04.257Z,4.40
2018-12-10T21:38:32.486Z,4.40
2018-12-10T21:41:00.693Z,4.40
2018-12-10T21:43:30.030Z,4.50
2018-12-10T21:45:58.184Z,4.50
2018-12-10T21:48:26.417Z,4.60
2018-12-10T21:50:54.619Z,4.50
2018-12-10T21:53:22.796Z,4.50
2018-12-10T21:55:50.975Z,4.40
2018-12-10T21:58:19.199Z,4.40
2018-12-10T22:00:47.376Z,4.40
2018-12-10T22:03:15.664Z,4.50
2018-12-10T22:05:43.775Z,4.50
2018-12-10T22:08:12.002Z,4.50
2018-12-10T22:10:40.184Z,4.50
2018-12-10T22:13:08.369Z,4.60
2018-12-10T22:15:36.868Z,4.60
2018-12-10T22:18:05.214Z,4.60
2018-12-10T22:20:33.415Z,4.60
2018-12-10T22:23:01.935Z,4.70
2018-12-10T22:25:30.132Z,4.60
2018-12-10T22:27:58.319Z,4.60
2018-12-10T22:30:26.556Z,4.60
2018-12-10T22:32:54.727Z,4.50
2018-12-10T22:35:23.871Z,4.60
2018-12-10T22:37:52.024Z,4.50
2018-12-10T22:40:20.137Z,4.40
2018-12-10T22:42:48.259Z,4.40
2018-12-10T22:45:16.357Z,4.50
2018-12-10T22:47:44.516Z,4.50
2018-12-10T22:50:12.621Z,4.50
2018-12-10T22:52:40.769Z,4.50
2018-12-10T22:55:08.935Z,4.50
2018-12-10T22:57:37.107Z,4.50
2018-12-10T23:00:07.091Z,4.50
2018-12-10T23:02:35.237Z,4.50
2018-12-10T23:05:03.604Z,4.50
2018-12-10T23:07:31.709Z,4.50
2018-12-10T23:09:59.854Z,4.50
2018-12-10T23:12:28.124Z,4.50
2018-12-10T23:14:56.259Z,4.50
2018-12-10T23:17:24.367Z,4.50
2018-12-10T23:19:52.528Z,4.50
2018-12-10T23:22:20.627Z,4.50
2018-12-10T23:24:48.749Z,4.60
2018-12-10T23:27:16.943Z,4.60
2018-12-10T23:29:45.081Z,4.60
2018-12-10T23:32:13.193Z,4.50
2018-12-10T23:34:41.344Z,4.60
2018-12-10T23:37:09.452Z,4.60
2018-12-10T23:39:37.632Z,4.60
2018-12-10T23:42:05.816Z,4.50
2018-12-10T23:44:39.349Z,4.50
2018-12-10T23:47:07.539Z,4.50
2018-12-10T23:49:35.648Z,4.40
2018-12-10T23:52:03.731Z,4.50
2018-12-10T23:54:31.892Z,4.50
2018-12-10T23:57:00.032Z,4.50
2018-12-10T23:59:28.133Z,4.50
